createdAt,value
2018-06-05T00:00:05.153Z,39.00
2018-06-05T00:05:04.480Z,99.90
2018-06-05T00:07:34.352Z,99.90
2018-06-05T00:10:03.140Z,1.00
2018-06-05T00:12:31.936Z,1.00
2018-06-05T00:15:00.770Z,1.00
2018-06-05T00:17:29.604Z,1.00
2018-06-05T00:19:58.432Z,1.00
2018-06-05T00:22:27.184Z,1.00
2018-06-05T00:24:55.992Z,1.00
2018-06-05T00:29:53.228Z,1.00
2018-06-05T00:32:23.957Z,1.00
2018-06-05T00:34:52.759Z,1.00
2018-06-05T00:37:21.540Z,13.10
2018-06-05T00:39:50.688Z,28.90
2018-06-05T00:42:19.543Z,99.90
2018-06-05T00:44:48.327Z,99.90
2018-06-05T00:47:17.127Z,1.00
2018-06-05T00:49:46.795Z,1.00
2018-06-05T00:52:15.584Z,1.00
2018-06-05T00:54:44.404Z,1.00
2018-06-05T00:57:13.172Z,99.90
2018-06-05T00:59:41.975Z,1.00
2018-06-05T01:02:10.773Z,1.00
2018-06-05T01:04:39.535Z,1.00
2018-06-05T01:07:08.343Z,1.00
2018-06-05T01:09:37.107Z,1.00
2018-06-05T01:12:06.091Z,1.00
2018-06-05T01:14:34.899Z,1.00
2018-06-05T01:17:03.671Z,1.00
2018-06-05T01:19:32.417Z,1.00
2018-06-05T01:22:01.275Z,99.90
2018-06-05T01:24:30.066Z,99.90
2018-06-05T01:26:58.863Z,99.90
2018-06-05T01:29:27.627Z,99.90
2018-06-05T01:31:56.667Z,99.90
2018-06-05T01:34:25.929Z,1.00
2018-06-05T01:36:54.715Z,1.00
2018-06-05T01:39:23.499Z,1.00
2018-06-05T01:41:52.271Z,47.00
2018-06-05T01:44:21.076Z,1.00
2018-06-05T01:46:49.871Z,99.90
2018-06-05T01:49:19.018Z,91.30
2018-06-05T01:51:47.836Z,1.00
2018-06-05T01:54:16.627Z,60.10
2018-06-05T01:56:45.407Z,99.90
2018-06-05T01:59:14.211Z,1.00
2018-06-05T02:01:44.032Z,99.90
2018-06-05T02:04:12.787Z,99.90
2018-06-05T02:06:41.583Z,99.90
2018-06-05T02:09:10.431Z,99.90
2018-06-05T02:11:39.259Z,99.90
2018-06-05T02:14:08.044Z,99.90
2018-06-05T02:16:36.839Z,1.00
2018-06-05T02:19:05.628Z,1.00
2018-06-05T02:21:34.401Z,1.00
2018-06-05T02:24:03.228Z,1.00
2018-06-05T02:26:31.979Z,1.00
2018-06-05T02:29:00.775Z,1.00
2018-06-05T02:31:29.559Z,1.00
2018-06-05T02:33:58.363Z,1.00
2018-06-05T02:36:27.425Z,1.00
2018-06-05T02:38:56.240Z,1.00
2018-06-05T02:41:25.023Z,1.00
2018-06-05T02:43:53.811Z,1.00
2018-06-05T02:46:22.606Z,1.00
2018-06-05T02:48:51.397Z,1.00
2018-06-05T02:51:20.184Z,1.00
2018-06-05T02:53:48.980Z,1.00
2018-06-05T02:56:18.075Z,1.00
2018-06-05T02:58:46.831Z,1.00
2018-06-05T03:01:15.651Z,92.20
2018-06-05T03:03:45.431Z,99.90
2018-06-05T03:06:14.227Z,16.30
2018-06-05T03:08:43.008Z,99.90
2018-06-05T03:11:12.067Z,99.90
2018-06-05T03:13:40.903Z,99.90
2018-06-05T03:16:09.712Z,99.90
2018-06-05T03:18:38.484Z,99.90
2018-06-05T03:21:07.339Z,99.90
2018-06-05T03:23:36.151Z,99.90
2018-06-05T03:26:04.936Z,99.90
2018-06-05T03:28:33.730Z,99.90
2018-06-05T03:31:02.532Z,99.90
2018-06-05T03:33:31.943Z,99.90
2018-06-05T03:38:29.304Z,99.90
2018-06-05T03:40:58.067Z,1.00
2018-06-05T03:43:26.895Z,1.00
2018-06-05T03:45:55.655Z,1.00
2018-06-05T03:48:24.447Z,1.00
2018-06-05T03:50:53.243Z,1.00
2018-06-05T03:53:22.024Z,1.00
2018-06-05T03:55:50.778Z,1.00
2018-06-05T03:58:19.596Z,1.00
2018-06-05T04:00:48.403Z,1.00
2018-06-05T04:03:18.759Z,1.00
2018-06-05T04:05:47.639Z,99.90
2018-06-05T04:08:16.471Z,1.00
2018-06-05T04:10:45.300Z,1.00
2018-06-05T04:13:15.175Z,99.90
2018-06-05T04:18:14.707Z,99.90
2018-06-05T04:20:43.419Z,99.90
2018-06-05T04:23:12.191Z,99.90
2018-06-05T04:25:40.948Z,42.80
2018-06-05T04:28:09.766Z,1.00
2018-06-05T04:30:38.535Z,1.00
2018-06-05T04:33:07.375Z,1.00
2018-06-05T04:35:36.131Z,1.00
2018-06-05T04:38:04.931Z,1.00
2018-06-05T04:40:34.711Z,1.00
2018-06-05T04:43:03.628Z,1.00
2018-06-05T04:45:32.383Z,1.00
2018-06-05T04:48:01.184Z,1.00
2018-06-05T04:50:29.974Z,99.90
2018-06-05T04:52:58.775Z,99.90
2018-06-05T04:55:27.551Z,99.90
2018-06-05T04:57:56.343Z,92.20
2018-06-05T05:00:25.134Z,6.20
2018-06-05T05:02:53.918Z,1.00
2018-06-05T05:05:22.695Z,1.00
2018-06-05T05:07:51.479Z,99.90
2018-06-05T05:10:20.266Z,90.10
2018-06-05T05:12:49.078Z,1.00
2018-06-05T05:15:17.850Z,1.00
2018-06-05T05:17:46.634Z,1.00
2018-06-05T05:20:15.411Z,1.00
2018-06-05T05:22:44.215Z,1.00
2018-06-05T05:25:12.991Z,99.90
2018-06-05T05:27:41.778Z,99.90
2018-06-05T05:30:11.601Z,99.90
2018-06-05T05:32:40.403Z,99.90
2018-06-05T05:35:09.187Z,99.90
2018-06-05T05:37:37.986Z,23.80
2018-06-05T05:40:06.747Z,1.00
2018-06-05T05:42:35.554Z,1.00
2018-06-05T05:45:04.355Z,1.00
2018-06-05T05:47:33.103Z,1.00
2018-06-05T05:50:01.928Z,1.00
2018-06-05T05:52:31.091Z,1.00
2018-06-05T05:55:00.103Z,1.00
2018-06-05T05:57:28.883Z,1.00
2018-06-05T05:59:57.667Z,1.00
2018-06-05T06:02:26.474Z,1.00
2018-06-05T06:04:55.251Z,1.00
2018-06-05T06:07:24.055Z,99.90
2018-06-05T06:09:52.822Z,99.90
2018-06-05T06:12:21.600Z,99.90
2018-06-05T06:14:50.347Z,99.90
2018-06-05T06:17:19.187Z,99.90
2018-06-05T06:19:47.985Z,2.20
2018-06-05T06:24:45.191Z,1.00
2018-06-05T06:27:14.067Z,1.00
2018-06-05T06:29:42.858Z,1.00
2018-06-05T06:32:11.610Z,1.00
2018-06-05T06:34:40.335Z,1.00
2018-06-05T06:37:09.071Z,1.00
2018-06-05T06:39:37.898Z,99.90
2018-06-05T06:42:06.673Z,99.90
2018-06-05T06:44:35.443Z,99.90
2018-06-05T06:47:04.273Z,99.90
2018-06-05T06:49:33.020Z,99.90
2018-06-05T06:52:01.814Z,99.20
2018-06-05T06:54:30.647Z,48.70
2018-06-05T06:56:59.479Z,1.00
2018-06-05T06:59:28.215Z,1.00
2018-06-05T07:01:57.074Z,1.00
2018-06-05T07:04:25.834Z,1.00
2018-06-05T07:06:54.631Z,1.00
2018-06-05T07:09:23.415Z,1.00
2018-06-05T07:11:53.278Z,1.00
2018-06-05T07:14:22.019Z,1.00
2018-06-05T07:16:50.755Z,1.00
2018-06-05T07:19:19.582Z,1.00
2018-06-05T07:21:48.427Z,1.00
2018-06-05T07:24:17.263Z,1.00
2018-06-05T07:26:46.068Z,1.00
2018-06-05T07:29:14.867Z,99.90
2018-06-05T07:31:43.619Z,99.90
2018-06-05T07:34:12.395Z,99.90
2018-06-05T07:36:41.207Z,99.90
2018-06-05T07:39:09.995Z,99.90
2018-06-05T07:41:38.783Z,99.90
2018-06-05T07:46:36.103Z,99.90
2018-06-05T07:49:04.963Z,99.90
2018-06-05T07:51:33.763Z,99.90
2018-06-05T07:56:31.003Z,93.40
2018-06-05T08:01:28.283Z,60.70
2018-06-05T08:06:25.600Z,1.00
2018-06-05T08:08:54.422Z,1.00
2018-06-05T08:11:23.247Z,1.00
2018-06-05T08:13:51.982Z,1.00
2018-06-05T08:16:20.810Z,1.00
2018-06-05T08:18:49.603Z,1.00
2018-06-05T08:21:18.401Z,1.00
2018-06-05T08:23:47.142Z,1.00
2018-06-05T08:26:15.942Z,1.00
2018-06-05T08:28:45.763Z,1.00
2018-06-05T08:31:14.607Z,1.00
2018-06-05T08:33:43.424Z,1.00
2018-06-05T08:36:12.199Z,1.00
2018-06-05T08:38:40.910Z,1.00
2018-06-05T08:41:09.714Z,1.00
2018-06-05T08:43:38.475Z,1.00
2018-06-05T08:46:07.274Z,1.00
2018-06-05T08:48:35.995Z,1.00
2018-06-05T08:51:05.787Z,1.00
2018-06-05T08:53:34.538Z,1.00
2018-06-05T08:56:03.388Z,1.00
2018-06-05T08:58:32.129Z,1.00
2018-06-05T09:01:00.903Z,1.00
2018-06-05T09:03:29.698Z,1.00
2018-06-05T09:05:58.483Z,1.00
2018-06-05T09:08:27.262Z,1.00
2018-06-05T09:10:56.082Z,1.00
2018-06-05T09:13:24.846Z,1.00
2018-06-05T09:15:53.558Z,1.00
2018-06-05T09:18:22.310Z,1.00
2018-06-05T09:20:51.026Z,1.00
2018-06-05T09:23:19.803Z,1.00
2018-06-05T09:25:48.587Z,1.00
2018-06-05T09:28:17.388Z,1.00
2018-06-05T09:30:46.096Z,1.00
2018-06-05T09:33:14.859Z,1.00
2018-06-05T09:35:43.643Z,1.00
2018-06-05T09:38:12.470Z,1.00
2018-06-05T09:40:41.216Z,1.00
2018-06-05T09:43:09.974Z,1.00
2018-06-05T09:45:38.826Z,1.00
2018-06-05T09:50:36.034Z,1.00
2018-06-05T09:53:04.847Z,1.00
2018-06-05T09:55:33.626Z,1.00
2018-06-05T09:58:02.458Z,1.00
2018-06-05T10:00:36.511Z,1.00
2018-06-05T10:03:05.318Z,1.00
2018-06-05T10:05:34.123Z,1.00
2018-06-05T10:08:03.919Z,1.00
2018-06-05T10:10:32.754Z,1.00
2018-06-05T10:13:01.595Z,1.00
2018-06-05T10:15:30.410Z,1.00
2018-06-05T10:17:59.170Z,1.00
2018-06-05T10:20:27.979Z,1.00
2018-06-05T10:22:57.034Z,1.00
2018-06-05T10:25:25.834Z,1.00
2018-06-05T10:27:54.675Z,1.00
2018-06-05T10:30:23.438Z,1.00
2018-06-05T10:32:52.206Z,1.00
2018-06-05T10:35:20.979Z,1.00
2018-06-05T10:37:49.782Z,1.00
2018-06-05T10:40:18.589Z,1.00
2018-06-05T10:42:47.358Z,1.00
2018-06-05T10:45:16.146Z,1.00
2018-06-05T10:47:44.958Z,1.00
2018-06-05T10:50:13.731Z,1.00
2018-06-05T10:52:42.498Z,1.00
2018-06-05T10:55:11.250Z,1.00
2018-06-05T10:57:40.075Z,1.00
2018-06-05T11:00:08.874Z,1.00
2018-06-05T11:02:37.662Z,1.00
2018-06-05T11:05:06.482Z,1.00
2018-06-05T11:12:33.190Z,1.00
2018-06-05T11:15:01.935Z,1.00
2018-06-05T11:17:30.690Z,1.00
2018-06-05T11:22:27.961Z,1.00
2018-06-05T11:24:56.758Z,1.00
2018-06-05T11:27:25.532Z,1.00
2018-06-05T11:29:54.322Z,1.00
2018-06-05T11:32:23.110Z,1.00
2018-06-05T11:34:51.894Z,1.00
2018-06-05T11:37:20.686Z,1.00
2018-06-05T11:42:18.874Z,1.00
2018-06-05T11:44:47.654Z,1.00
2018-06-05T11:49:45.502Z,1.00
2018-06-05T11:52:14.261Z,1.00
2018-06-05T11:57:11.494Z,1.00
2018-06-05T11:59:40.277Z,1.00
2018-06-05T12:02:09.010Z,1.00
2018-06-05T12:07:06.257Z,1.00
2018-06-05T12:09:35.038Z,1.00
2018-06-05T12:12:03.828Z,1.00
2018-06-05T12:14:32.602Z,1.00
2018-06-05T12:17:01.391Z,1.00
2018-06-05T12:19:30.181Z,1.00
2018-06-05T12:21:58.897Z,1.00
2018-06-05T12:26:56.138Z,1.00
2018-06-05T12:29:24.913Z,1.00
2018-06-05T12:31:53.723Z,1.00
2018-06-05T12:34:22.501Z,1.00
2018-06-05T12:36:51.271Z,1.00
2018-06-05T12:39:20.074Z,1.00
2018-06-05T12:41:48.934Z,1.00
2018-06-05T12:46:46.133Z,1.00
2018-06-05T12:49:14.921Z,1.00
2018-06-05T12:51:44.778Z,1.00
2018-06-05T12:54:13.529Z,1.00
2018-06-05T12:56:42.305Z,1.00
2018-06-05T12:59:11.114Z,1.00
2018-06-05T13:01:39.893Z,1.00
2018-06-05T13:04:08.698Z,1.00
2018-06-05T13:09:07.649Z,1.00
2018-06-05T13:11:36.457Z,1.00
2018-06-05T13:14:05.253Z,1.00
2018-06-05T13:16:34.085Z,99.90
2018-06-05T13:19:02.841Z,99.90
2018-06-05T13:21:31.633Z,99.90
2018-06-05T13:24:00.409Z,99.90
2018-06-05T13:26:29.205Z,99.90
2018-06-05T13:28:57.937Z,99.90
2018-06-05T13:31:26.777Z,99.90
2018-06-05T13:33:55.537Z,99.90
2018-06-05T13:36:24.343Z,99.90
2018-06-05T13:38:53.125Z,99.90
2018-06-05T13:41:21.925Z,99.90
2018-06-05T13:43:50.708Z,99.90
2018-06-05T13:46:19.505Z,99.90
2018-06-05T13:48:48.863Z,99.90
2018-06-05T13:51:17.593Z,99.90
2018-06-05T13:53:46.373Z,99.90
2018-06-05T13:56:15.445Z,99.90
2018-06-05T13:58:44.257Z,99.90
2018-06-05T14:01:13.053Z,99.90
2018-06-05T14:03:41.841Z,99.90
2018-06-05T14:06:10.805Z,99.90
2018-06-05T14:08:39.633Z,99.90
2018-06-05T14:11:08.400Z,99.90
2018-06-05T14:13:37.177Z,99.90
2018-06-05T14:16:05.977Z,99.90
2018-06-05T14:18:34.805Z,99.90
2018-06-05T14:21:03.541Z,99.90
2018-06-05T14:23:32.317Z,99.90
2018-06-05T14:26:02.141Z,99.90
2018-06-05T14:28:30.873Z,99.90
2018-06-05T14:30:59.609Z,99.90
2018-06-05T14:33:28.413Z,99.90
2018-06-05T14:35:57.193Z,99.90
2018-06-05T14:38:25.981Z,99.90
2018-06-05T14:40:54.789Z,99.90
2018-06-05T14:43:23.569Z,99.90
2018-06-05T14:45:52.358Z,99.90
2018-06-05T14:48:21.117Z,99.90
2018-06-05T14:50:49.935Z,99.90
2018-06-05T14:53:18.737Z,99.90
2018-06-05T14:55:47.501Z,99.90
2018-06-05T14:58:16.246Z,99.90
2018-06-05T15:00:45.997Z,99.90
2018-06-05T15:03:14.805Z,99.90
2018-06-05T15:05:43.553Z,99.90
2018-06-05T15:08:12.421Z,99.90
2018-06-05T15:10:41.273Z,99.90
2018-06-05T15:13:10.080Z,99.90
2018-06-05T15:15:38.821Z,99.90
2018-06-05T15:18:07.605Z,99.90
2018-06-05T15:20:36.393Z,99.90
2018-06-05T15:23:05.173Z,99.90
2018-06-05T15:25:33.997Z,99.90
2018-06-05T15:28:02.773Z,99.90
2018-06-05T15:30:31.533Z,99.90
2018-06-05T15:33:00.349Z,99.90
2018-06-05T15:35:30.135Z,99.90
2018-06-05T15:37:58.869Z,99.90
2018-06-05T15:42:56.095Z,99.90
2018-06-05T15:45:24.917Z,99.90
2018-06-05T15:47:53.645Z,99.90
2018-06-05T15:50:22.421Z,99.90
2018-06-05T15:52:51.161Z,99.90
2018-06-05T15:55:21.625Z,99.90
2018-06-05T15:57:50.369Z,99.90
2018-06-05T16:00:19.161Z,99.90
2018-06-05T16:02:47.929Z,99.90
2018-06-05T16:05:16.669Z,99.90
2018-06-05T16:07:45.433Z,99.90
2018-06-05T16:10:14.201Z,99.90
2018-06-05T16:12:42.994Z,99.90
2018-06-05T16:15:11.729Z,99.90
2018-06-05T16:17:40.564Z,99.90
2018-06-05T16:20:09.353Z,99.90
2018-06-05T16:22:38.133Z,99.90
2018-06-05T16:25:06.949Z,99.90
2018-06-05T16:27:35.717Z,99.90
2018-06-05T16:30:05.268Z,99.90
2018-06-05T16:32:34.001Z,99.90
2018-06-05T16:35:02.797Z,99.90
2018-06-05T16:37:31.515Z,99.90
2018-06-05T16:40:00.283Z,99.90
2018-06-05T16:42:29.053Z,99.90
2018-06-05T16:44:57.856Z,99.90
2018-06-05T16:47:26.644Z,99.90
2018-06-05T16:49:55.413Z,99.90
2018-06-05T16:52:24.193Z,99.90
2018-06-05T16:54:53.013Z,99.90
2018-06-05T16:57:21.792Z,99.90
2018-06-05T16:59:50.587Z,99.90
2018-06-05T17:02:19.381Z,99.90
2018-06-05T17:04:48.222Z,99.90
2018-06-05T17:07:16.932Z,99.90
2018-06-05T17:09:45.640Z,99.90
2018-06-05T17:12:14.408Z,99.90
2018-06-05T17:14:43.132Z,99.90
2018-06-05T17:19:40.277Z,99.90
2018-06-05T17:22:09.040Z,99.90
2018-06-05T17:24:37.785Z,99.90
2018-06-05T17:27:06.622Z,99.90
2018-06-05T17:29:35.408Z,99.90
2018-06-05T17:34:32.680Z,99.90
2018-06-05T17:37:01.462Z,99.90
2018-06-05T17:39:30.264Z,99.90
2018-06-05T17:41:59.036Z,99.90
2018-06-05T17:44:27.823Z,99.90
2018-06-05T17:46:56.572Z,99.90
2018-06-05T17:49:25.420Z,99.90
2018-06-05T17:51:54.152Z,99.90
2018-06-05T17:54:22.964Z,99.90
2018-06-05T17:56:51.764Z,99.90
2018-06-05T17:59:20.548Z,99.90
2018-06-05T18:01:49.360Z,99.90
2018-06-05T18:04:18.180Z,99.90
2018-06-05T18:06:46.932Z,99.90
2018-06-05T18:09:15.704Z,99.90
2018-06-05T18:11:44.417Z,99.90
2018-06-05T18:14:13.180Z,99.90
2018-06-05T18:16:41.960Z,99.90
2018-06-05T18:19:10.748Z,99.90
2018-06-05T18:21:39.544Z,99.90
2018-06-05T18:24:08.360Z,99.90
2018-06-05T18:26:37.156Z,99.90
2018-06-05T18:29:05.960Z,99.90
2018-06-05T18:31:34.691Z,99.90
2018-06-05T18:34:03.440Z,99.90
2018-06-05T18:36:32.276Z,99.90
2018-06-05T18:39:01.108Z,99.90
2018-06-05T18:41:29.848Z,99.90
2018-06-05T18:43:58.644Z,99.90
2018-06-05T18:46:27.407Z,99.90
2018-06-05T18:48:56.216Z,99.90
2018-06-05T18:51:25.044Z,99.90
2018-06-05T18:53:53.783Z,99.90
2018-06-05T18:56:22.568Z,99.90
2018-06-05T18:58:51.359Z,99.90
2018-06-05T19:03:49.575Z,99.90
2018-06-05T19:06:18.348Z,99.90
2018-06-05T19:08:47.152Z,99.90
2018-06-05T19:11:15.920Z,99.90
2018-06-05T19:16:13.083Z,99.90
2018-06-05T19:18:41.883Z,99.90
2018-06-05T19:21:11.603Z,99.90
2018-06-05T19:23:40.347Z,99.90
2018-06-05T19:26:09.099Z,99.90
2018-06-05T19:28:37.859Z,99.90
2018-06-05T19:31:06.691Z,99.90
2018-06-05T19:33:35.495Z,99.90
2018-06-05T19:36:04.295Z,99.90
2018-06-05T19:38:33.048Z,99.90
2018-06-05T19:41:01.887Z,99.90
2018-06-05T19:43:30.671Z,99.90
2018-06-05T19:45:59.471Z,99.90
2018-06-05T19:48:28.266Z,99.90
2018-06-05T19:50:57.027Z,99.90
2018-06-05T19:53:25.851Z,99.90
2018-06-05T19:55:54.622Z,99.90
2018-06-05T19:58:23.459Z,99.90
2018-06-05T20:00:52.329Z,99.90
2018-06-05T20:05:49.719Z,99.90
2018-06-05T20:08:18.575Z,99.90
2018-06-05T20:10:47.383Z,99.90
2018-06-05T20:13:16.263Z,99.90
2018-06-05T20:15:45.063Z,99.90
2018-06-05T20:18:13.955Z,99.90
2018-06-05T20:20:42.883Z,99.90
2018-06-05T20:23:11.728Z,99.90
2018-06-05T20:25:40.564Z,99.90
2018-06-05T20:28:09.375Z,99.90
2018-06-05T20:30:38.185Z,99.90
2018-06-05T20:33:06.999Z,99.90
2018-06-05T20:35:35.867Z,99.90
2018-06-05T20:38:04.719Z,99.90
2018-06-05T20:40:34.587Z,99.90
2018-06-05T20:43:03.423Z,99.90
2018-06-05T20:45:33.299Z,99.90
2018-06-05T20:48:02.592Z,99.90
2018-06-05T20:50:31.607Z,99.90
2018-06-05T20:53:00.477Z,99.90
2018-06-05T20:55:29.235Z,99.90
2018-06-05T20:57:58.007Z,99.90
2018-06-05T21:00:26.815Z,99.90
2018-06-05T21:02:55.621Z,99.90
2018-06-05T21:05:24.519Z,99.90
2018-06-05T21:07:53.373Z,99.90
2018-06-05T21:10:22.219Z,99.90
2018-06-05T21:12:51.027Z,99.90
2018-06-05T21:15:20.863Z,99.90
2018-06-05T21:17:49.660Z,99.90
2018-06-05T21:20:18.515Z,99.90
2018-06-05T21:22:47.327Z,99.90
2018-06-05T21:25:16.219Z,99.90
2018-06-05T21:27:45.705Z,99.90
2018-06-05T21:30:14.574Z,99.90
2018-06-05T21:32:43.399Z,99.90
2018-06-05T21:35:13.167Z,1.00
2018-06-05T21:37:42.009Z,1.00
2018-06-05T21:40:11.175Z,1.00
2018-06-05T21:42:39.991Z,1.00
2018-06-05T21:45:09.075Z,1.00
2018-06-05T21:47:38.263Z,1.00
2018-06-05T21:50:07.043Z,1.00
2018-06-05T21:52:35.786Z,1.00
2018-06-05T21:55:05.571Z,1.00
2018-06-05T21:57:34.376Z,1.00
2018-06-05T22:00:03.267Z,1.00
2018-06-05T22:02:32.063Z,1.00
2018-06-05T22:05:00.843Z,1.00
2018-06-05T22:07:29.739Z,1.00
2018-06-05T22:09:58.607Z,1.00
2018-06-05T22:12:28.415Z,11.80
2018-06-05T22:14:58.247Z,99.90
2018-06-05T22:17:27.154Z,99.90
2018-06-05T22:19:56.055Z,99.90
2018-06-05T22:22:25.711Z,99.90
2018-06-05T22:24:54.491Z,1.00
2018-06-05T22:27:23.267Z,1.00
2018-06-05T22:29:52.063Z,1.00
2018-06-05T22:32:20.863Z,1.00
2018-06-05T22:34:49.686Z,16.40
2018-06-05T22:37:18.575Z,99.90
2018-06-05T22:39:47.439Z,1.00
2018-06-05T22:44:44.835Z,1.00
2018-06-05T22:47:13.619Z,99.90
2018-06-05T22:49:42.523Z,99.90
2018-06-05T22:52:11.395Z,99.90
2018-06-05T22:54:40.155Z,1.00
2018-06-05T22:59:37.439Z,99.90
2018-06-05T23:02:06.251Z,99.90
2018-06-05T23:04:35.127Z,1.00
2018-06-05T23:12:00.827Z,99.90
2018-06-05T23:14:29.679Z,1.00
2018-06-05T23:16:58.563Z,1.00
2018-06-05T23:19:27.439Z,1.00
2018-06-05T23:24:25.003Z,99.90
2018-06-05T23:26:53.767Z,1.00
2018-06-05T23:29:22.563Z,1.00
2018-06-05T23:31:51.359Z,1.00
2018-06-05T23:34:20.203Z,99.90
2018-06-05T23:36:49.071Z,99.90
2018-06-05T23:39:17.943Z,99.90
2018-06-05T23:44:15.239Z,1.00
2018-06-05T23:46:44.122Z,1.00
2018-06-05T23:49:12.905Z,1.00
2018-06-05T23:51:41.798Z,1.00
2018-06-05T23:54:10.683Z,48.50
2018-06-05T23:56:39.535Z,99.90
2018-06-05T23:59:08.383Z,99.90
